Welcome to Trans World Virtual Airlines!

Welcome TWVA's Newest Pilot:

TWA2313 Bryan Heald

Not a Trans World pilot yet?
Apply Now!




Sign-in with your pilot id or email, or register

Flight TWA836

  • Submitted By: Austin Hill
  • Departure Airport: Dallas/Fort Worth International Airport (KDFW)
  • Arrival Airport: Kansas City International Airport (KMCI)
  • Aircraft: MD-83 (N44266TW)
  • Flight Time: 01.51
  • Date Submitted: 04/23/2018
  • Route: FUZ J25 TUL J25 MCI KMCI
  • Status: Accepted
Flight Details
Gross Revenue:
(117 load / $ 195.00 per unit
$ 22, 815.00
Fuel Cost:
(15104 fuel used @ 0.8 / unit)
$ 12, 083.20

Additional Log Information:

View Log

FS[17:34] Aircraft Title - MD_83 Paint4
FS[17:34] Aircraft Model - MD83
FS[17:34] Flight Number TWA836
FS[17:34] Departure KDFW
FS[17:34] Destination KMCI
FS[17:34] Boarding
FS[17:46] Pushing Back
FS[17:50] Taxiing to Runway
FS[18:00] Taking Off
FS[18:00] Taking Off
FS[18:00] 182kts
FS[18:00] pitch angle 7 degrees
FS[18:00] 20883 (lbs) of fuel onboard
FS[18:01] Climbing
FS[18:14] TOC Reached
FS[18:14] Cruise 29000
FS[18:51] TOD Reached
FS[18:51] Descending
FS[19:06] On Approach
FS[19:12] Landing Rate -160fpm
FS[19:12] 8559 (lbs) of fuel onboard
FS[19:12] pitch angle 9 degrees
FS[19:13] Taxiing to Gate
FS[19:18] Arrived
FS[19:26] Max Sim Rate: 1x
FS[19:26] kACARS_Free Version 1.0.1.1

Comments

Commenter Comment
Austin Hill KDFW 231738Z 31614KT 10SM SCT034 21/11 A3007 // KMCI 231856Z 03812KT 10SM FEW150 23/00 A3005

Route Map